This is the latest recevied weather packets stored in our database for station/object E24QND-2. If no packets are shown the sender has not sent any weather packets the latest 10 day(s).
| Time | Temp. | Humidity | Pressure | Rain* | Wind** | Luminosity | Snow |
|---|---|---|---|---|---|---|---|
| 1778235842 | 30° C | 98% | - | - | - | 0 W/m² | - |
| 1778234618 | 31.11° C | 95% | - | - | - | 0 W/m² | - |
| 1778233393 | 30.56° C | 99% | - | - | - | 0 W/m² | - |
| 1778232169 | 30.56° C | 99% | - | - | - | 0 W/m² | - |
| 1778230944 | 30.56° C | 99% | - | - | - | 0 W/m² | - |
| 1778229720 | 30° C | 99% | - | - | - | 0 W/m² | - |
| 1778228495 | 30° C | 99% | - | - | - | 0 W/m² | - |
| 1778227271 | 30° C | 99% | - | - | - | 0 W/m² | - |
| 1778226046 | 30° C | 99% | - | - | - | 0 W/m² | - |
| 1778224821 | 30° C | 99% | - | - | - | 0 W/m² | - |
| 1778223597 | 30° C | 99% | - | - | - | 0 W/m² | - |
| 1778222373 | 29.44° C | 99% | - | - | - | 0 W/m² | - |
| 1778221148 | 29.44° C | 99% | - | - | - | 0 W/m² | - |
| 1778219923 | 28.89° C | 99% | - | - | - | 0 W/m² | - |
| 1778218699 | 28.89° C | 99% | - | - | - | 0 W/m² | - |
| 1778217474 | 27.22° C | 1% | - | - | - | 0 W/m² | - |
| 1778191758 | 28.33° C | 3% | - | - | - | 0 W/m² | - |
| 1778189309 | 28.33° C | 1% | - | - | - | 0 W/m² | - |
| 1778188085 | 28.89° C | 1% | - | - | - | 0 W/m² | - |
| 1778185636 | 28.89° C | 1% | - | - | - | 0 W/m² | - |
| 1778183187 | 30° C | 1% | - | - | - | 0 W/m² | - |
| 1778181962 | 30° C | 1% | - | - | - | 0 W/m² | - |
| 1778180738 | 30° C | 1% | - | - | - | 0 W/m² | - |
| 1778178288 | 30° C | 1% | - | - | - | 0 W/m² | - |
| 1778177064 | 30° C | 1% | - | - | - | 0 W/m² | - |
* Rain since midnight (hover to see other rain measurements)
** Current wind speed in m/s (hover to see current wind gust speed)